sensor_id;sensor_type;location;lat;lon;timestamp;temperature;humidity
65876;HTU21D;52657;51.128;5.938;2023-04-03T00:00:53;6.10;63.47
65876;HTU21D;52657;51.128;5.938;2023-04-03T00:03:19;6.11;63.59
65876;HTU21D;52657;51.128;5.938;2023-04-03T00:05:45;6.12;63.50
65876;HTU21D;52657;51.128;5.938;2023-04-03T00:08:12;6.08;63.57
65876;HTU21D;52657;51.128;5.938;2023-04-03T00:10:37;6.09;63.69
65876;HTU21D;52657;51.128;5.938;2023-04-03T00:13:04;6.11;63.66
65876;HTU21D;52657;51.128;5.938;2023-04-03T00:15:30;6.11;63.61
65876;HTU21D;52657;51.128;5.938;2023-04-03T00:17:56;6.10;63.45
65876;HTU21D;52657;51.128;5.938;2023-04-03T00:20:22;6.08;63.48
65876;HTU21D;52657;51.128;5.938;2023-04-03T00:22:48;6.09;63.48
65876;HTU21D;52657;51.128;5.938;2023-04-03T00:25:14;6.07;63.37
65876;HTU21D;52657;51.128;5.938;2023-04-03T00:27:42;6.08;63.30
65876;HTU21D;52657;51.128;5.938;2023-04-03T00:30:11;6.06;63.36
65876;HTU21D;52657;51.128;5.938;2023-04-03T00:32:40;6.05;63.31
65876;HTU21D;52657;51.128;5.938;2023-04-03T00:35:06;6.02;63.38
65876;HTU21D;52657;51.128;5.938;2023-04-03T00:37:32;6.01;63.34
65876;HTU21D;52657;51.128;5.938;2023-04-03T00:39:58;5.99;63.33
65876;HTU21D;52657;51.128;5.938;2023-04-03T00:42:24;6.00;63.28
65876;HTU21D;52657;51.128;5.938;2023-04-03T00:47:18;6.02;63.11
65876;HTU21D;52657;51.128;5.938;2023-04-03T00:49:46;5.99;63.13
65876;HTU21D;52657;51.128;5.938;2023-04-03T00:52:16;5.99;63.21
65876;HTU21D;52657;51.128;5.938;2023-04-03T00:54:45;5.99;63.02
65876;HTU21D;52657;51.128;5.938;2023-04-03T00:57:12;5.96;63.02
65876;HTU21D;52657;51.128;5.938;2023-04-03T00:59:44;5.94;63.24
65876;HTU21D;52657;51.128;5.938;2023-04-03T01:02:12;5.95;63.32
65876;HTU21D;52657;51.128;5.938;2023-04-03T01:04:41;5.97;63.33
65876;HTU21D;52657;51.128;5.938;2023-04-03T01:07:11;5.98;63.21
65876;HTU21D;52657;51.128;5.938;2023-04-03T01:09:39;5.98;63.16
65876;HTU21D;52657;51.128;5.938;2023-04-03T01:12:25;5.97;63.14
65876;HTU21D;52657;51.128;5.938;2023-04-03T01:14:59;5.99;63.14
65876;HTU21D;52657;51.128;5.938;2023-04-03T01:17:35;5.96;63.08
65876;HTU21D;52657;51.128;5.938;2023-04-03T01:25:22;5.85;63.15
65876;HTU21D;52657;51.128;5.938;2023-04-03T01:27:49;5.84;63.28
65876;HTU21D;52657;51.128;5.938;2023-04-03T01:30:19;5.78;63.36
65876;HTU21D;52657;51.128;5.938;2023-04-03T01:32:45;5.74;63.47
65876;HTU21D;52657;51.128;5.938;2023-04-03T01:35:13;5.69;63.56
65876;HTU21D;52657;51.128;5.938;2023-04-03T01:37:38;5.65;63.61
65876;HTU21D;52657;51.128;5.938;2023-04-03T01:40:05;5.61;63.79
65876;HTU21D;52657;51.128;5.938;2023-04-03T01:42:32;5.57;63.99
65876;HTU21D;52657;51.128;5.938;2023-04-03T01:44:58;5.56;64.05
65876;HTU21D;52657;51.128;5.938;2023-04-03T01:47:24;5.55;64.08
65876;HTU21D;52657;51.128;5.938;2023-04-03T01:49:50;5.54;64.09
65876;HTU21D;52657;51.128;5.938;2023-04-03T01:52:15;5.55;64.03
65876;HTU21D;52657;51.128;5.938;2023-04-03T01:54:41;5.54;63.98
65876;HTU21D;52657;51.128;5.938;2023-04-03T01:57:06;5.52;63.99
65876;HTU21D;52657;51.128;5.938;2023-04-03T01:59:33;5.48;64.22
65876;HTU21D;52657;51.128;5.938;2023-04-03T02:01:58;5.43;64.23
65876;HTU21D;52657;51.128;5.938;2023-04-03T02:04:24;5.40;64.36
65876;HTU21D;52657;51.128;5.938;2023-04-03T02:06:50;5.38;64.37
65876;HTU21D;52657;51.128;5.938;2023-04-03T02:09:15;5.36;64.44
65876;HTU21D;52657;51.128;5.938;2023-04-03T02:11:41;5.33;64.50
65876;HTU21D;52657;51.128;5.938;2023-04-03T02:14:07;5.30;64.63
65876;HTU21D;52657;51.128;5.938;2023-04-03T02:16:33;5.27;64.63
65876;HTU21D;52657;51.128;5.938;2023-04-03T02:18:59;5.22;64.82
65876;HTU21D;52657;51.128;5.938;2023-04-03T02:21:25;5.20;64.89
65876;HTU21D;52657;51.128;5.938;2023-04-03T02:23:50;5.15;64.98
65876;HTU21D;52657;51.128;5.938;2023-04-03T02:26:18;5.10;65.06
65876;HTU21D;52657;51.128;5.938;2023-04-03T02:28:45;5.03;65.24
65876;HTU21D;52657;51.128;5.938;2023-04-03T02:31:11;4.94;65.66
65876;HTU21D;52657;51.128;5.938;2023-04-03T02:33:39;4.88;66.00
65876;HTU21D;52657;51.128;5.938;2023-04-03T02:36:08;4.92;66.01
65876;HTU21D;52657;51.128;5.938;2023-04-03T02:38:35;4.93;65.97
65876;HTU21D;52657;51.128;5.938;2023-04-03T02:41:06;4.93;65.95
65876;HTU21D;52657;51.128;5.938;2023-04-03T02:43:32;4.96;65.88
65876;HTU21D;52657;51.128;5.938;2023-04-03T02:45:58;4.97;65.82
65876;HTU21D;52657;51.128;5.938;2023-04-03T02:48:24;4.98;65.81
65876;HTU21D;52657;51.128;5.938;2023-04-03T02:50:50;4.97;65.80
65876;HTU21D;52657;51.128;5.938;2023-04-03T02:53:17;4.95;65.85
65876;HTU21D;52657;51.128;5.938;2023-04-03T02:55:44;4.95;65.83
65876;HTU21D;52657;51.128;5.938;2023-04-03T02:58:10;4.92;65.96
65876;HTU21D;52657;51.128;5.938;2023-04-03T03:00:36;4.93;65.96
65876;HTU21D;52657;51.128;5.938;2023-04-03T03:03:02;4.94;65.85
65876;HTU21D;52657;51.128;5.938;2023-04-03T03:05:28;4.91;65.88
65876;HTU21D;52657;51.128;5.938;2023-04-03T03:07:54;4.84;66.04
65876;HTU21D;52657;51.128;5.938;2023-04-03T03:10:20;4.82;66.15
65876;HTU21D;52657;51.128;5.938;2023-04-03T03:12:46;4.80;66.12
65876;HTU21D;52657;51.128;5.938;2023-04-03T03:15:12;4.76;66.30
65876;HTU21D;52657;51.128;5.938;2023-04-03T03:17:38;4.74;66.41
65876;HTU21D;52657;51.128;5.938;2023-04-03T03:20:05;4.71;66.55
65876;HTU21D;52657;51.128;5.938;2023-04-03T03:22:31;4.69;66.51
65876;HTU21D;52657;51.128;5.938;2023-04-03T03:24:57;4.66;66.66
65876;HTU21D;52657;51.128;5.938;2023-04-03T03:27:23;4.60;66.82
65876;HTU21D;52657;51.128;5.938;2023-04-03T03:29:49;4.60;66.97
65876;HTU21D;52657;51.128;5.938;2023-04-03T03:32:15;4.59;67.08
65876;HTU21D;52657;51.128;5.938;2023-04-03T03:34:41;4.50;67.37
65876;HTU21D;52657;51.128;5.938;2023-04-03T03:37:06;4.46;67.63
65876;HTU21D;52657;51.128;5.938;2023-04-03T03:39:32;4.42;67.84
65876;HTU21D;52657;51.128;5.938;2023-04-03T03:41:58;4.43;67.96
65876;HTU21D;52657;51.128;5.938;2023-04-03T03:44:23;4.42;68.17
65876;HTU21D;52657;51.128;5.938;2023-04-03T03:46:49;4.42;68.23
65876;HTU21D;52657;51.128;5.938;2023-04-03T03:49:15;4.39;68.41
65876;HTU21D;52657;51.128;5.938;2023-04-03T03:51:41;4.43;68.47
65876;HTU21D;52657;51.128;5.938;2023-04-03T03:54:07;4.41;68.61
65876;HTU21D;52657;51.128;5.938;2023-04-03T03:56:33;4.38;68.75
65876;HTU21D;52657;51.128;5.938;2023-04-03T03:59:00;4.39;68.88
65876;HTU21D;52657;51.128;5.938;2023-04-03T04:01:26;4.41;68.90
65876;HTU21D;52657;51.128;5.938;2023-04-03T04:03:51;4.41;68.95
65876;HTU21D;52657;51.128;5.938;2023-04-03T04:06:22;4.43;69.00
65876;HTU21D;52657;51.128;5.938;2023-04-03T04:08:49;4.42;68.97
65876;HTU21D;52657;51.128;5.938;2023-04-03T04:11:15;4.37;69.14
65876;HTU21D;52657;51.128;5.938;2023-04-03T04:13:43;4.35;69.26
65876;HTU21D;52657;51.128;5.938;2023-04-03T04:16:11;4.37;69.21
65876;HTU21D;52657;51.128;5.938;2023-04-03T04:18:37;4.37;69.20
65876;HTU21D;52657;51.128;5.938;2023-04-03T04:21:03;4.37;69.15
65876;HTU21D;52657;51.128;5.938;2023-04-03T04:23:29;4.39;69.11
65876;HTU21D;52657;51.128;5.938;2023-04-03T04:25:57;4.36;69.04
65876;HTU21D;52657;51.128;5.938;2023-04-03T04:28:23;4.35;69.09
65876;HTU21D;52657;51.128;5.938;2023-04-03T04:30:54;4.33;69.13
65876;HTU21D;52657;51.128;5.938;2023-04-03T04:33:22;4.35;69.14
65876;HTU21D;52657;51.128;5.938;2023-04-03T04:35:48;4.30;69.23
65876;HTU21D;52657;51.128;5.938;2023-04-03T04:38:15;4.24;69.45
65876;HTU21D;52657;51.128;5.938;2023-04-03T04:40:41;4.26;69.41
65876;HTU21D;52657;51.128;5.938;2023-04-03T04:43:07;4.26;69.37
65876;HTU21D;52657;51.128;5.938;2023-04-03T04:45:34;4.23;69.43
65876;HTU21D;52657;51.128;5.938;2023-04-03T04:48:00;4.23;69.45
65876;HTU21D;52657;51.128;5.938;2023-04-03T04:50:25;4.24;69.40
65876;HTU21D;52657;51.128;5.938;2023-04-03T04:52:52;4.26;69.33
65876;HTU21D;52657;51.128;5.938;2023-04-03T04:55:18;4.27;69.20
65876;HTU21D;52657;51.128;5.938;2023-04-03T04:57:44;4.22;69.20
65876;HTU21D;52657;51.128;5.938;2023-04-03T05:00:10;4.19;69.32
65876;HTU21D;52657;51.128;5.938;2023-04-03T05:02:36;4.20;69.24
65876;HTU21D;52657;51.128;5.938;2023-04-03T05:05:02;4.18;69.33
65876;HTU21D;52657;51.128;5.938;2023-04-03T05:07:29;4.16;69.19
65876;HTU21D;52657;51.128;5.938;2023-04-03T05:09:56;4.18;69.20
65876;HTU21D;52657;51.128;5.938;2023-04-03T05:12:23;4.18;69.13
65876;HTU21D;52657;51.128;5.938;2023-04-03T05:14:54;4.19;68.94
65876;HTU21D;52657;51.128;5.938;2023-04-03T05:17:20;4.18;68.99
65876;HTU21D;52657;51.128;5.938;2023-04-03T05:19:49;4.20;68.86
65876;HTU21D;52657;51.128;5.938;2023-04-03T05:22:17;4.19;68.96
65876;HTU21D;52657;51.128;5.938;2023-04-03T05:24:43;4.20;68.91
65876;HTU21D;52657;51.128;5.938;2023-04-03T05:27:09;4.21;68.90
65876;HTU21D;52657;51.128;5.938;2023-04-03T05:29:40;4.19;68.97
65876;HTU21D;52657;51.128;5.938;2023-04-03T05:32:10;4.17;69.08
65876;HTU21D;52657;51.128;5.938;2023-04-03T05:34:36;4.20;69.08
65876;HTU21D;52657;51.128;5.938;2023-04-03T05:37:03;4.18;69.09
65876;HTU21D;52657;51.128;5.938;2023-04-03T05:39:30;4.15;69.29
65876;HTU21D;52657;51.128;5.938;2023-04-03T05:41:58;4.15;69.28
65876;HTU21D;52657;51.128;5.938;2023-04-03T05:44:24;4.16;69.31
65876;HTU21D;52657;51.128;5.938;2023-04-03T05:46:50;4.13;69.47
65876;HTU21D;52657;51.128;5.938;2023-04-03T05:49:17;4.16;69.52
65876;HTU21D;52657;51.128;5.938;2023-04-03T05:51:43;4.14;69.60
65876;HTU21D;52657;51.128;5.938;2023-04-03T05:54:27;4.18;69.60
65876;HTU21D;52657;51.128;5.938;2023-04-03T05:56:59;4.14;69.65
65876;HTU21D;52657;51.128;5.938;2023-04-03T05:59:26;4.15;69.71
65876;HTU21D;52657;51.128;5.938;2023-04-03T06:01:54;4.17;69.70
65876;HTU21D;52657;51.128;5.938;2023-04-03T06:04:20;4.18;69.75
65876;HTU21D;52657;51.128;5.938;2023-04-03T06:06:53;4.19;69.73
65876;HTU21D;52657;51.128;5.938;2023-04-03T06:09:21;4.26;69.49
65876;HTU21D;52657;51.128;5.938;2023-04-03T06:11:49;4.23;69.63
65876;HTU21D;52657;51.128;5.938;2023-04-03T06:14:16;4.27;69.49
65876;HTU21D;52657;51.128;5.938;2023-04-03T06:16:42;4.32;69.40
65876;HTU21D;52657;51.128;5.938;2023-04-03T06:19:09;4.33;69.37
65876;HTU21D;52657;51.128;5.938;2023-04-03T06:21:39;4.38;69.31
65876;HTU21D;52657;51.128;5.938;2023-04-03T06:24:06;4.42;69.30
65876;HTU21D;52657;51.128;5.938;2023-04-03T06:26:33;4.43;69.34
65876;HTU21D;52657;51.128;5.938;2023-04-03T06:28:59;4.54;68.96
65876;HTU21D;52657;51.128;5.938;2023-04-03T06:31:25;4.58;68.95
65876;HTU21D;52657;51.128;5.938;2023-04-03T06:33:51;4.60;68.91
65876;HTU21D;52657;51.128;5.938;2023-04-03T06:36:20;4.65;68.65
65876;HTU21D;52657;51.128;5.938;2023-04-03T06:38:47;4.68;68.48
65876;HTU21D;52657;51.128;5.938;2023-04-03T06:41:13;4.77;68.19
65876;HTU21D;52657;51.128;5.938;2023-04-03T06:43:39;4.77;68.26
65876;HTU21D;52657;51.128;5.938;2023-04-03T06:46:04;4.90;67.96
65876;HTU21D;52657;51.128;5.938;2023-04-03T06:48:30;4.91;67.84
65876;HTU21D;52657;51.128;5.938;2023-04-03T06:50:56;4.96;67.62
65876;HTU21D;52657;51.128;5.938;2023-04-03T06:53:22;5.05;66.98
65876;HTU21D;52657;51.128;5.938;2023-04-03T06:55:48;5.07;66.91
65876;HTU21D;52657;51.128;5.938;2023-04-03T06:58:14;5.15;66.86
65876;HTU21D;52657;51.128;5.938;2023-04-03T07:00:41;5.23;66.94
65876;HTU21D;52657;51.128;5.938;2023-04-03T07:03:06;5.77;67.01
65876;HTU21D;52657;51.128;5.938;2023-04-03T07:05:33;6.66;68.17
65876;HTU21D;52657;51.128;5.938;2023-04-03T07:07:58;7.83;65.67
65876;HTU21D;52657;51.128;5.938;2023-04-03T07:10:24;8.97;61.28
65876;HTU21D;52657;51.128;5.938;2023-04-03T07:12:50;9.95;55.47
65876;HTU21D;52657;51.128;5.938;2023-04-03T07:15:16;10.71;53.84
65876;HTU21D;52657;51.128;5.938;2023-04-03T07:17:42;11.43;51.82
65876;HTU21D;52657;51.128;5.938;2023-04-03T07:20:09;11.99;49.33
65876;HTU21D;52657;51.128;5.938;2023-04-03T07:22:36;12.65;48.28
65876;HTU21D;52657;51.128;5.938;2023-04-03T07:25:02;13.16;45.66
65876;HTU21D;52657;51.128;5.938;2023-04-03T07:27:28;13.48;44.87
65876;HTU21D;52657;51.128;5.938;2023-04-03T07:29:54;13.75;44.67
65876;HTU21D;52657;51.128;5.938;2023-04-03T07:32:21;14.19;43.85
65876;HTU21D;52657;51.128;5.938;2023-04-03T07:34:47;14.62;42.16
65876;HTU21D;52657;51.128;5.938;2023-04-03T07:37:13;14.94;41.00
65876;HTU21D;52657;51.128;5.938;2023-04-03T07:39:39;15.23;39.91
65876;HTU21D;52657;51.128;5.938;2023-04-03T07:42:05;15.49;39.25
65876;HTU21D;52657;51.128;5.938;2023-04-03T07:44:30;15.88;38.43
65876;HTU21D;52657;51.128;5.938;2023-04-03T07:46:56;16.34;37.60
65876;HTU21D;52657;51.128;5.938;2023-04-03T07:49:22;16.78;36.12
65876;HTU21D;52657;51.128;5.938;2023-04-03T07:51:51;16.74;35.64
65876;HTU21D;52657;51.128;5.938;2023-04-03T07:54:18;16.72;35.95
65876;HTU21D;52657;51.128;5.938;2023-04-03T07:56:44;16.93;35.55
65876;HTU21D;52657;51.128;5.938;2023-04-03T07:59:10;16.95;33.96
65876;HTU21D;52657;51.128;5.938;2023-04-03T08:01:37;16.67;34.73
65876;HTU21D;52657;51.128;5.938;2023-04-03T08:04:03;16.58;34.66
65876;HTU21D;52657;51.128;5.938;2023-04-03T08:06:30;16.45;34.57
65876;HTU21D;52657;51.128;5.938;2023-04-03T08:08:57;16.37;34.86
65876;HTU21D;52657;51.128;5.938;2023-04-03T08:11:23;16.80;34.89
65876;HTU21D;52657;51.128;5.938;2023-04-03T08:13:52;16.94;33.75
65876;HTU21D;52657;51.128;5.938;2023-04-03T08:16:20;17.16;33.30
65876;HTU21D;52657;51.128;5.938;2023-04-03T08:18:47;17.29;33.34
65876;HTU21D;52657;51.128;5.938;2023-04-03T08:21:13;17.36;32.89
65876;HTU21D;52657;51.128;5.938;2023-04-03T08:23:41;17.52;31.03
65876;HTU21D;52657;51.128;5.938;2023-04-03T08:26:16;17.35;31.51
65876;HTU21D;52657;51.128;5.938;2023-04-03T08:28:43;17.38;31.97
65876;HTU21D;52657;51.128;5.938;2023-04-03T08:31:12;17.66;31.01
65876;HTU21D;52657;51.128;5.938;2023-04-03T08:33:39;17.39;30.43
65876;HTU21D;52657;51.128;5.938;2023-04-03T08:36:08;17.36;29.59
65876;HTU21D;52657;51.128;5.938;2023-04-03T08:38:41;17.11;30.14
65876;HTU21D;52657;51.128;5.938;2023-04-03T08:47:30;17.23;29.58
65876;HTU21D;52657;51.128;5.938;2023-04-03T08:50:11;17.44;29.35
65876;HTU21D;52657;51.128;5.938;2023-04-03T08:52:49;17.45;29.33
65876;HTU21D;52657;51.128;5.938;2023-04-03T08:55:33;17.18;29.71
65876;HTU21D;52657;51.128;5.938;2023-04-03T08:58:03;17.01;29.90
65876;HTU21D;52657;51.128;5.938;2023-04-03T09:03:17;16.87;30.63
65876;HTU21D;52657;51.128;5.938;2023-04-03T09:05:45;17.04;29.80
65876;HTU21D;52657;51.128;5.938;2023-04-03T09:08:23;17.37;28.93
65876;HTU21D;52657;51.128;5.938;2023-04-03T09:16:56;17.23;25.84
65876;HTU21D;52657;51.128;5.938;2023-04-03T09:22:25;16.93;26.46
65876;HTU21D;52657;51.128;5.938;2023-04-03T09:25:07;17.13;23.21
65876;HTU21D;52657;51.128;5.938;2023-04-03T09:27:35;16.91;22.89
65876;HTU21D;52657;51.128;5.938;2023-04-03T09:30:02;16.96;21.73
65876;HTU21D;52657;51.128;5.938;2023-04-03T09:32:31;16.75;21.49
65876;HTU21D;52657;51.128;5.938;2023-04-03T09:35:03;16.66;20.95
65876;HTU21D;52657;51.128;5.938;2023-04-03T09:37:44;16.61;20.12
65876;HTU21D;52657;51.128;5.938;2023-04-03T09:42:52;16.73;19.33
65876;HTU21D;52657;51.128;5.938;2023-04-03T09:45:33;16.34;20.02
65876;HTU21D;52657;51.128;5.938;2023-04-03T09:48:12;16.17;21.12
65876;HTU21D;52657;51.128;5.938;2023-04-03T09:56:00;16.22;21.21
65876;HTU21D;52657;51.128;5.938;2023-04-03T09:58:36;16.18;21.09
65876;HTU21D;52657;51.128;5.938;2023-04-03T10:01:03;16.16;20.66
65876;HTU21D;52657;51.128;5.938;2023-04-03T10:03:34;15.87;20.43
65876;HTU21D;52657;51.128;5.938;2023-04-03T10:06:02;15.62;21.24
65876;HTU21D;52657;51.128;5.938;2023-04-03T10:08:32;15.36;22.32
65876;HTU21D;52657;51.128;5.938;2023-04-03T10:13:35;15.36;22.42
65876;HTU21D;52657;51.128;5.938;2023-04-03T10:16:09;15.30;22.69
65876;HTU21D;52657;51.128;5.938;2023-04-03T10:18:58;14.96;23.49
65876;HTU21D;52657;51.128;5.938;2023-04-03T10:21:55;14.80;24.39
65876;HTU21D;52657;51.128;5.938;2023-04-03T10:26:58;14.54;23.95
65876;HTU21D;52657;51.128;5.938;2023-04-03T10:40:57;13.37;26.88
65876;HTU21D;52657;51.128;5.938;2023-04-03T10:43:49;13.30;26.82
65876;HTU21D;52657;51.128;5.938;2023-04-03T10:46:38;13.15;26.21
65876;HTU21D;52657;51.128;5.938;2023-04-03T10:49:35;12.91;26.38
65876;HTU21D;52657;51.128;5.938;2023-04-03T10:52:22;12.67;27.07
65876;HTU21D;52657;51.128;5.938;2023-04-03T10:57:25;12.60;27.27
65876;HTU21D;52657;51.128;5.938;2023-04-03T11:00:06;12.51;27.70
65876;HTU21D;52657;51.128;5.938;2023-04-03T11:02:49;12.51;28.40
65876;HTU21D;52657;51.128;5.938;2023-04-03T11:05:37;12.38;28.93
65876;HTU21D;52657;51.128;5.938;2023-04-03T11:08:24;12.18;28.94
65876;HTU21D;52657;51.128;5.938;2023-04-03T11:11:29;12.17;29.52
65876;HTU21D;52657;51.128;5.938;2023-04-03T11:16:51;12.14;30.37
65876;HTU21D;52657;51.128;5.938;2023-04-03T11:19:23;12.13;30.33
65876;HTU21D;52657;51.128;5.938;2023-04-03T11:22:02;12.05;29.95
65876;HTU21D;52657;51.128;5.938;2023-04-03T11:24:33;12.00;30.12
65876;HTU21D;52657;51.128;5.938;2023-04-03T11:27:04;12.11;30.41
65876;HTU21D;52657;51.128;5.938;2023-04-03T11:29:37;12.05;29.86
65876;HTU21D;52657;51.128;5.938;2023-04-03T11:32:11;12.01;30.53
65876;HTU21D;52657;51.128;5.938;2023-04-03T11:34:47;12.15;30.04
65876;HTU21D;52657;51.128;5.938;2023-04-03T11:37:34;12.07;30.71
65876;HTU21D;52657;51.128;5.938;2023-04-03T11:42:46;12.20;31.53
65876;HTU21D;52657;51.128;5.938;2023-04-03T11:47:58;12.28;30.62
65876;HTU21D;52657;51.128;5.938;2023-04-03T11:50:41;12.18;31.70
65876;HTU21D;52657;51.128;5.938;2023-04-03T12:16:28;12.55;31.93
65876;HTU21D;52657;51.128;5.938;2023-04-03T12:35:20;12.88;31.09
65876;HTU21D;52657;51.128;5.938;2023-04-03T12:43:50;12.61;31.59
65876;HTU21D;52657;51.128;5.938;2023-04-03T12:46:23;12.56;31.86
65876;HTU21D;52657;51.128;5.938;2023-04-03T12:48:57;12.63;31.54
65876;HTU21D;52657;51.128;5.938;2023-04-03T12:51:39;12.57;31.63
65876;HTU21D;52657;51.128;5.938;2023-04-03T12:54:19;12.65;32.54
65876;HTU21D;52657;51.128;5.938;2023-04-03T12:56:47;12.78;32.73
65876;HTU21D;52657;51.128;5.938;2023-04-03T12:59:25;12.85;32.08
65876;HTU21D;52657;51.128;5.938;2023-04-03T13:02:00;12.82;31.94
65876;HTU21D;52657;51.128;5.938;2023-04-03T13:04:31;12.62;31.80
65876;HTU21D;52657;51.128;5.938;2023-04-03T13:06:58;12.46;33.39
65876;HTU21D;52657;51.128;5.938;2023-04-03T13:09:32;12.57;32.90
65876;HTU21D;52657;51.128;5.938;2023-04-03T13:14:34;12.60;32.81
65876;HTU21D;52657;51.128;5.938;2023-04-03T13:17:12;12.50;32.88
65876;HTU21D;52657;51.128;5.938;2023-04-03T13:19:39;12.50;33.06
65876;HTU21D;52657;51.128;5.938;2023-04-03T13:22:15;12.62;32.78
65876;HTU21D;52657;51.128;5.938;2023-04-03T13:24:54;12.59;33.10
65876;HTU21D;52657;51.128;5.938;2023-04-03T13:27:21;12.64;32.52
65876;HTU21D;52657;51.128;5.938;2023-04-03T13:29:53;12.69;32.67
65876;HTU21D;52657;51.128;5.938;2023-04-03T13:32:25;12.72;32.15
65876;HTU21D;52657;51.128;5.938;2023-04-03T13:34:52;12.71;32.26
65876;HTU21D;52657;51.128;5.938;2023-04-03T13:37:24;12.77;31.43
65876;HTU21D;52657;51.128;5.938;2023-04-03T13:40:17;12.77;31.72
65876;HTU21D;52657;51.128;5.938;2023-04-03T13:42:42;12.73;31.76
65876;HTU21D;52657;51.128;5.938;2023-04-03T13:47:49;12.78;32.30
65876;HTU21D;52657;51.128;5.938;2023-04-03T13:50:24;12.80;32.02
65876;HTU21D;52657;51.128;5.938;2023-04-03T13:52:59;12.79;31.86
65876;HTU21D;52657;51.128;5.938;2023-04-03T13:55:26;12.78;31.17
65876;HTU21D;52657;51.128;5.938;2023-04-03T14:03:31;12.72;31.33
65876;HTU21D;52657;51.128;5.938;2023-04-03T14:05:59;12.73;32.09
65876;HTU21D;52657;51.128;5.938;2023-04-03T14:08:27;12.87;31.00
65876;HTU21D;52657;51.128;5.938;2023-04-03T14:10:53;12.80;31.24
65876;HTU21D;52657;51.128;5.938;2023-04-03T14:13:20;12.90;30.16
65876;HTU21D;52657;51.128;5.938;2023-04-03T14:15:48;12.71;30.54
65876;HTU21D;52657;51.128;5.938;2023-04-03T14:18:18;12.66;31.22
65876;HTU21D;52657;51.128;5.938;2023-04-03T14:20:45;12.67;31.90
65876;HTU21D;52657;51.128;5.938;2023-04-03T14:23:10;12.77;30.67
65876;HTU21D;52657;51.128;5.938;2023-04-03T14:25:37;12.65;30.89
65876;HTU21D;52657;51.128;5.938;2023-04-03T14:28:20;12.63;30.71
65876;HTU21D;52657;51.128;5.938;2023-04-03T14:30:49;12.58;31.06
65876;HTU21D;52657;51.128;5.938;2023-04-03T14:33:19;12.69;30.06
65876;HTU21D;52657;51.128;5.938;2023-04-03T14:35:45;12.57;30.72
65876;HTU21D;52657;51.128;5.938;2023-04-03T14:38:24;12.53;30.79
65876;HTU21D;52657;51.128;5.938;2023-04-03T14:40:52;12.50;31.19
65876;HTU21D;52657;51.128;5.938;2023-04-03T14:43:19;12.64;31.52
65876;HTU21D;52657;51.128;5.938;2023-04-03T14:45:46;12.70;31.22
65876;HTU21D;52657;51.128;5.938;2023-04-03T14:48:27;12.70;31.16
65876;HTU21D;52657;51.128;5.938;2023-04-03T14:50:54;12.61;30.80
65876;HTU21D;52657;51.128;5.938;2023-04-03T14:53:20;12.61;30.35
65876;HTU21D;52657;51.128;5.938;2023-04-03T14:55:50;12.55;30.64
65876;HTU21D;52657;51.128;5.938;2023-04-03T14:58:19;12.51;30.74
65876;HTU21D;52657;51.128;5.938;2023-04-03T15:00:46;12.43;30.54
65876;HTU21D;52657;51.128;5.938;2023-04-03T15:03:21;12.51;30.44
65876;HTU21D;52657;51.128;5.938;2023-04-03T15:05:48;12.58;30.13
65876;HTU21D;52657;51.128;5.938;2023-04-03T15:08:22;12.63;29.84
65876;HTU21D;52657;51.128;5.938;2023-04-03T15:10:49;12.62;29.99
65876;HTU21D;52657;51.128;5.938;2023-04-03T15:13:15;12.67;30.37
65876;HTU21D;52657;51.128;5.938;2023-04-03T15:15:41;12.70;30.66
65876;HTU21D;52657;51.128;5.938;2023-04-03T15:18:14;12.69;30.42
65876;HTU21D;52657;51.128;5.938;2023-04-03T15:20:40;12.75;29.86
65876;HTU21D;52657;51.128;5.938;2023-04-03T15:23:06;12.62;29.84
65876;HTU21D;52657;51.128;5.938;2023-04-03T15:25:32;12.62;29.84
65876;HTU21D;52657;51.128;5.938;2023-04-03T15:27:59;12.70;29.87
65876;HTU21D;52657;51.128;5.938;2023-04-03T15:30:25;12.71;30.06
65876;HTU21D;52657;51.128;5.938;2023-04-03T15:32:51;12.72;30.17
65876;HTU21D;52657;51.128;5.938;2023-04-03T15:35:18;12.72;30.35
65876;HTU21D;52657;51.128;5.938;2023-04-03T15:37:44;12.75;30.62
65876;HTU21D;52657;51.128;5.938;2023-04-03T15:40:10;12.72;30.64
65876;HTU21D;52657;51.128;5.938;2023-04-03T15:42:36;12.71;30.80
65876;HTU21D;52657;51.128;5.938;2023-04-03T15:45:02;12.75;30.77
65876;HTU21D;52657;51.128;5.938;2023-04-03T15:47:29;12.81;30.44
65876;HTU21D;52657;51.128;5.938;2023-04-03T15:49:55;12.70;30.96
65876;HTU21D;52657;51.128;5.938;2023-04-03T15:52:21;12.63;30.63
65876;HTU21D;52657;51.128;5.938;2023-04-03T15:54:47;12.58;30.86
65876;HTU21D;52657;51.128;5.938;2023-04-03T15:57:13;12.46;30.92
65876;HTU21D;52657;51.128;5.938;2023-04-03T15:59:39;12.40;31.07
65876;HTU21D;52657;51.128;5.938;2023-04-03T16:02:07;12.43;30.93
65876;HTU21D;52657;51.128;5.938;2023-04-03T16:04:35;12.44;31.26
65876;HTU21D;52657;51.128;5.938;2023-04-03T16:07:02;12.38;31.23
65876;HTU21D;52657;51.128;5.938;2023-04-03T16:09:28;12.42;30.90
65876;HTU21D;52657;51.128;5.938;2023-04-03T16:11:54;12.40;31.16
65876;HTU21D;52657;51.128;5.938;2023-04-03T16:14:20;12.45;30.93
65876;HTU21D;52657;51.128;5.938;2023-04-03T16:16:45;12.43;31.22
65876;HTU21D;52657;51.128;5.938;2023-04-03T16:19:11;12.48;30.74
65876;HTU21D;52657;51.128;5.938;2023-04-03T16:21:37;12.43;30.55
65876;HTU21D;52657;51.128;5.938;2023-04-03T16:24:03;12.38;31.11
65876;HTU21D;52657;51.128;5.938;2023-04-03T16:26:29;12.33;31.03
65876;HTU21D;52657;51.128;5.938;2023-04-03T16:28:55;12.27;31.77
65876;HTU21D;52657;51.128;5.938;2023-04-03T16:31:23;12.32;31.28
65876;HTU21D;52657;51.128;5.938;2023-04-03T16:33:49;12.27;30.87
65876;HTU21D;52657;51.128;5.938;2023-04-03T16:36:15;12.23;30.86
65876;HTU21D;52657;51.128;5.938;2023-04-03T16:38:41;12.18;31.09
65876;HTU21D;52657;51.128;5.938;2023-04-03T16:41:06;12.15;31.49
65876;HTU21D;52657;51.128;5.938;2023-04-03T16:43:33;12.15;31.59
65876;HTU21D;52657;51.128;5.938;2023-04-03T16:45:59;12.11;31.72
65876;HTU21D;52657;51.128;5.938;2023-04-03T16:48:27;12.03;32.38
65876;HTU21D;52657;51.128;5.938;2023-04-03T16:50:53;12.06;32.58
65876;HTU21D;52657;51.128;5.938;2023-04-03T16:53:23;12.08;32.82
65876;HTU21D;52657;51.128;5.938;2023-04-03T16:55:49;12.10;32.28
65876;HTU21D;52657;51.128;5.938;2023-04-03T16:58:15;12.02;32.37
65876;HTU21D;52657;51.128;5.938;2023-04-03T17:00:42;12.00;33.04
65876;HTU21D;52657;51.128;5.938;2023-04-03T17:03:08;12.02;32.87
65876;HTU21D;52657;51.128;5.938;2023-04-03T17:05:34;12.02;33.02
65876;HTU21D;52657;51.128;5.938;2023-04-03T17:08:00;11.94;33.30
65876;HTU21D;52657;51.128;5.938;2023-04-03T17:10:27;11.96;32.74
65876;HTU21D;52657;51.128;5.938;2023-04-03T17:12:53;11.89;32.96
65876;HTU21D;52657;51.128;5.938;2023-04-03T17:15:19;11.85;32.99
65876;HTU21D;52657;51.128;5.938;2023-04-03T17:17:49;11.83;33.35
65876;HTU21D;52657;51.128;5.938;2023-04-03T17:20:16;11.86;33.07
65876;HTU21D;52657;51.128;5.938;2023-04-03T17:22:42;11.78;33.18
65876;HTU21D;52657;51.128;5.938;2023-04-03T17:25:08;11.82;33.06
65876;HTU21D;52657;51.128;5.938;2023-04-03T17:27:35;11.72;33.15
65876;HTU21D;52657;51.128;5.938;2023-04-03T17:30:01;11.63;32.97